Time;durP1;ratioP1;P1;durP2;ratioP2;P2;SDS_P1;SDS_P2;PMS_P1;PMS_P2;Temp;Humidity;BMP_temperature;BMP_pressure;BME280_temperature;BME280_humidity;BME280_pressure;Samples;Min_cycle;Max_cycle;Signal;HPM_P1;HPM_P2
2021/06/28 00:00:31;;;;;;;14.47;6.53;;;24.20;79.30;;;;;;1887162;76;21084;-47
2021/06/28 00:03:01;;;;;;;11.10;6.47;;;24.20;79.20;;;;;;1887148;75;21058;-47
2021/06/28 00:05:30;;;;;;;8.93;6.55;;;24.20;79.20;;;;;;1887151;76;21155;-48
2021/06/28 00:07:59;;;;;;;8.23;6.30;;;24.20;79.20;;;;;;1887225;76;21026;-47
2021/06/28 00:10:31;;;;;;;10.13;6.72;;;24.20;79.10;;;;;;1887134;76;21014;-47
2021/06/28 00:13:01;;;;;;;9.78;5.85;;;24.20;79.10;;;;;;1887067;75;21103;-47
2021/06/28 00:15:37;;;;;;;10.80;5.90;;;24.20;79.00;;;;;;1887165;76;21095;-47
2021/06/28 00:18:05;;;;;;;10.38;6.05;;;24.10;79.10;;;;;;1886804;76;21092;-48
2021/06/28 00:20:34;;;;;;;11.75;5.67;;;24.10;79.20;;;;;;1887173;76;21096;-47
2021/06/28 00:23:04;;;;;;;12.13;6.15;;;24.10;79.20;;;;;;1887161;75;21042;-47
2021/06/28 00:25:34;;;;;;;14.90;6.58;;;24.10;79.00;;;;;;1887131;76;21037;-49
2021/06/28 00:28:05;;;;;;;10.72;6.72;;;24.10;79.20;;;;;;1887154;76;21046;-48
2021/06/28 00:30:41;;;;;;;9.10;6.92;;;24.10;79.20;;;;;;1887138;76;21100;-47
2021/06/28 00:33:12;;;;;;;16.60;6.87;;;24.10;79.10;;;;;;1887239;76;21020;-47
2021/06/28 00:35:42;;;;;;;12.73;7.17;;;24.10;79.10;;;;;;1887171;75;21073;-46
2021/06/28 00:38:12;;;;;;;10.40;6.30;;;24.00;79.10;;;;;;1887176;76;21037;-49
2021/06/28 00:40:43;;;;;;;14.10;6.80;;;24.00;79.10;;;;;;1887236;76;21135;-49
2021/06/28 00:43:13;;;;;;;12.23;6.78;;;24.00;79.10;;;;;;1887186;76;21053;-46
2021/06/28 00:45:43;;;;;;;9.38;6.60;;;24.00;79.20;;;;;;1887120;76;21030;-47
2021/06/28 00:48:15;;;;;;;12.20;6.90;;;24.00;79.40;;;;;;1887107;76;21104;-48
2021/06/28 00:50:47;;;;;;;8.55;6.50;;;23.90;79.30;;;;;;1887226;76;21006;-48
2021/06/28 00:53:19;;;;;;;12.25;7.33;;;23.90;79.20;;;;;;1887234;75;21112;-47
2021/06/28 00:55:49;;;;;;;10.30;7.10;;;23.80;79.50;;;;;;1887300;76;21038;-47
2021/06/28 00:58:19;;;;;;;11.15;7.15;;;23.70;79.60;;;;;;1887149;75;21038;-50
2021/06/28 01:00:48;;;;;;;11.48;6.90;;;23.70;79.70;;;;;;1887145;76;21088;-47
2021/06/28 01:03:18;;;;;;;10.53;7.15;;;23.60;79.80;;;;;;1887258;75;21053;-50
2021/06/28 01:05:47;;;;;;;10.78;7.17;;;23.50;79.90;;;;;;1887146;76;21144;-47
2021/06/28 01:08:17;;;;;;;10.68;7.85;;;23.40;80.20;;;;;;1887220;76;21042;-48
2021/06/28 01:10:46;;;;;;;9.05;7.33;;;23.40;80.30;;;;;;1887324;76;21055;-48
2021/06/28 01:13:16;;;;;;;11.43;7.30;;;23.40;80.50;;;;;;1887350;76;21058;-47
2021/06/28 01:15:46;;;;;;;12.00;7.40;;;23.40;80.70;;;;;;1887243;75;21041;-48
2021/06/28 01:18:15;;;;;;;9.80;7.28;;;23.30;80.80;;;;;;1887203;76;21034;-48
2021/06/28 01:20:45;;;;;;;10.80;6.80;;;23.30;80.90;;;;;;1887226;76;21014;-47
2021/06/28 01:23:20;;;;;;;9.70;7.28;;;23.30;81.00;;;;;;1887339;76;21029;-47
2021/06/28 01:25:58;;;;;;;11.78;7.65;;;23.30;81.20;;;;;;1887368;76;21049;-49
2021/06/28 01:28:28;;;;;;;8.33;6.67;;;23.40;81.10;;;;;;1886885;76;21116;-50
2021/06/28 01:30:59;;;;;;;11.50;6.85;;;23.40;81.10;;;;;;1887216;76;21037;-47
2021/06/28 01:33:29;;;;;;;8.95;6.30;;;23.40;81.10;;;;;;1887182;76;21031;-49
2021/06/28 01:35:59;;;;;;;11.93;6.62;;;23.40;81.00;;;;;;1887215;76;21049;-50
2021/06/28 01:38:28;;;;;;;10.85;7.85;;;23.40;81.00;;;;;;1887188;76;21100;-46
2021/06/28 01:40:57;;;;;;;12.63;7.90;;;23.50;81.10;;;;;;1887319;76;21006;-47
2021/06/28 01:43:27;;;;;;;9.05;7.35;;;23.50;81.10;;;;;;1887299;76;21049;-46
2021/06/28 01:45:56;;;;;;;10.55;7.22;;;23.50;81.00;;;;;;1887275;75;21034;-47
2021/06/28 01:48:26;;;;;;;10.08;7.85;;;23.40;81.00;;;;;;1887217;76;21029;-47
2021/06/28 01:50:56;;;;;;;8.88;7.03;;;23.40;81.10;;;;;;1887310;76;21010;-47
2021/06/28 01:53:25;;;;;;;12.80;8.38;;;23.40;81.30;;;;;;1887158;76;21058;-47
2021/06/28 01:55:55;;;;;;;12.23;7.45;;;23.40;81.40;;;;;;1887208;76;21034;-47
2021/06/28 01:58:25;;;;;;;15.30;8.28;;;23.50;81.40;;;;;;1887253;75;21065;-47
2021/06/28 02:00:55;;;;;;;8.05;7.33;;;23.50;81.20;;;;;;1887318;75;21155;-47
2021/06/28 02:03:26;;;;;;;10.30;7.40;;;23.50;80.90;;;;;;1871860;76;21128;-48
2021/06/28 02:05:58;;;;;;;17.62;7.72;;;23.50;80.80;;;;;;1865977;77;21539;-47
2021/06/28 02:08:29;;;;;;;15.38;8.05;;;23.50;81.40;;;;;;1865900;77;21125;-47
2021/06/28 02:11:01;;;;;;;9.90;7.17;;;23.50;80.80;;;;;;1865855;77;21011;-49
2021/06/28 02:13:33;;;;;;;11.90;8.38;;;23.40;80.70;;;;;;1865838;77;21063;-49
2021/06/28 02:16:03;;;;;;;10.65;9.03;;;23.30;80.80;;;;;;1865940;76;21117;-47
2021/06/28 02:18:32;;;;;;;15.80;8.15;;;23.30;81.10;;;;;;1865841;76;21078;-48
2021/06/28 02:21:03;;;;;;;8.60;6.95;;;23.30;81.30;;;;;;1865935;77;21030;-47
2021/06/28 02:23:34;;;;;;;9.55;7.70;;;23.30;81.30;;;;;;1865819;76;21046;-48
2021/06/28 02:26:06;;;;;;;10.48;7.67;;;23.40;81.50;;;;;;1865975;77;21043;-48
2021/06/28 02:28:38;;;;;;;13.75;7.90;;;23.50;81.50;;;;;;1865313;77;21058;-48
2021/06/28 02:31:10;;;;;;;8.45;6.85;;;23.60;81.40;;;;;;1865957;76;21426;-47
2021/06/28 02:33:40;;;;;;;11.85;8.03;;;23.60;81.20;;;;;;1865810;77;21035;-47
2021/06/28 02:36:10;;;;;;;11.80;7.97;;;23.70;81.20;;;;;;1865870;76;21030;-47
2021/06/28 02:38:41;;;;;;;9.20;7.05;;;23.70;80.70;;;;;;1865759;76;21074;-46
2021/06/28 02:41:11;;;;;;;12.50;7.58;;;23.70;80.90;;;;;;1866053;77;21438;-46
2021/06/28 02:43:41;;;;;;;13.40;8.45;;;23.70;80.90;;;;;;1865799;76;21081;-45
2021/06/28 02:46:11;;;;;;;11.97;6.80;;;23.80;81.10;;;;;;1865938;77;21039;-45
2021/06/28 02:48:41;;;;;;;14.35;8.33;;;23.80;81.00;;;;;;1865813;77;21081;-48
2021/06/28 02:51:12;;;;;;;12.93;7.17;;;23.90;80.80;;;;;;1865896;77;21038;-45
2021/06/28 02:53:42;;;;;;;15.90;8.23;;;23.90;80.60;;;;;;1865894;77;21030;-45
2021/06/28 02:56:15;;;;;;;13.08;8.78;;;23.90;80.60;;;;;;1865797;77;21039;-47
2021/06/28 02:58:47;;;;;;;41.75;10.32;;;23.90;80.60;;;;;;1865918;77;21031;-47
2021/06/28 03:01:19;;;;;;;13.05;8.40;;;23.90;80.70;;;;;;1865886;76;21034;-46
2021/06/28 03:03:48;;;;;;;16.25;8.95;;;24.00;80.90;;;;;;1866605;75;21038;-45
2021/06/28 03:06:19;;;;;;;16.97;9.53;;;24.10;80.80;;;;;;1865994;76;21059;-45
2021/06/28 03:08:49;;;;;;;12.70;8.18;;;24.10;80.60;;;;;;1865795;76;21031;-47
2021/06/28 03:11:20;;;;;;;15.48;9.28;;;24.00;80.50;;;;;;1865913;76;21090;-46
2021/06/28 03:13:50;;;;;;;15.48;8.23;;;24.00;80.60;;;;;;1865977;77;21078;-47
2021/06/28 03:16:20;;;;;;;10.50;8.03;;;24.10;80.60;;;;;;1865833;77;21108;-45
2021/06/28 03:18:49;;;;;;;12.88;8.35;;;24.10;80.60;;;;;;1865814;76;21100;-45
2021/06/28 03:21:19;;;;;;;16.10;8.80;;;24.20;80.60;;;;;;1865857;77;21007;-47
2021/06/28 03:23:49;;;;;;;14.60;8.33;;;24.30;80.50;;;;;;1865828;77;21035;-46
2021/06/28 03:26:18;;;;;;;8.63;7.30;;;24.50;80.30;;;;;;1865776;77;21093;-46
2021/06/28 03:28:47;;;;;;;15.25;7.87;;;24.60;80.10;;;;;;1865710;76;21035;-46
2021/06/28 03:31:16;;;;;;;15.20;8.10;;;24.80;79.90;;;;;;1865853;76;21100;-47
2021/06/28 03:33:46;;;;;;;11.80;8.65;;;24.90;79.70;;;;;;1865795;76;21105;-47
2021/06/28 03:36:15;;;;;;;13.68;8.53;;;25.00;79.20;;;;;;1865824;76;21038;-48
2021/06/28 03:38:45;;;;;;;12.07;8.15;;;25.10;78.80;;;;;;1865905;77;21104;-47
2021/06/28 03:41:14;;;;;;;10.63;7.37;;;25.20;78.50;;;;;;1865854;77;21031;-47
2021/06/28 03:43:44;;;;;;;12.78;8.15;;;25.20;78.20;;;;;;1865878;77;21147;-46
2021/06/28 03:46:13;;;;;;;25.65;8.23;;;25.20;77.90;;;;;;1866104;77;21105;-45
2021/06/28 03:48:43;;;;;;;10.90;7.60;;;25.20;78.00;;;;;;1865849;77;21034;-47
2021/06/28 03:51:12;;;;;;;12.75;7.40;;;25.30;78.00;;;;;;1865870;76;21104;-46
2021/06/28 03:53:42;;;;;;;13.13;7.50;;;25.30;78.00;;;;;;1865938;77;21035;-46
2021/06/28 03:56:13;;;;;;;12.78;7.58;;;25.40;77.90;;;;;;1865958;77;21043;-47
2021/06/28 03:58:43;;;;;;;11.22;6.75;;;25.50;77.70;;;;;;1865788;77;21007;-46
2021/06/28 04:01:13;;;;;;;15.72;9.00;;;25.50;77.60;;;;;;1865977;77;21066;-46
2021/06/28 04:03:42;;;;;;;10.18;7.37;;;25.60;77.50;;;;;;1872630;75;21081;-47
2021/06/28 04:06:13;;;;;;;10.35;8.45;;;25.60;77.50;;;;;;1887237;76;21034;-46
2021/06/28 04:08:42;;;;;;;10.82;7.28;;;25.70;77.50;;;;;;1887207;76;21100;-48
2021/06/28 04:11:11;;;;;;;12.75;7.35;;;25.80;77.40;;;;;;1887107;76;21010;-46
2021/06/28 04:13:41;;;;;;;15.05;7.67;;;25.90;77.30;;;;;;1887207;75;21099;-46
2021/06/28 04:16:10;;;;;;;10.23;7.40;;;26.00;77.20;;;;;;1887158;76;21028;-46
2021/06/28 04:18:40;;;;;;;11.78;8.23;;;26.10;77.10;;;;;;1887102;76;21067;-46
2021/06/28 04:21:09;;;;;;;22.02;7.85;;;26.10;76.90;;;;;;1887198;76;21042;-46
2021/06/28 04:23:39;;;;;;;17.40;12.03;;;26.20;76.90;;;;;;1887143;76;21117;-46
2021/06/28 04:26:08;;;;;;;12.50;10.68;;;26.30;76.80;;;;;;1887092;76;21026;-45
2021/06/28 04:28:37;;;;;;;13.30;8.83;;;26.30;76.70;;;;;;1887053;76;21178;-46
2021/06/28 04:31:07;;;;;;;24.07;15.32;;;26.30;76.70;;;;;;1887054;76;21094;-48
2021/06/28 04:33:36;;;;;;;12.98;7.83;;;26.30;76.70;;;;;;1887063;76;21030;-46
2021/06/28 04:36:06;;;;;;;12.65;7.90;;;26.40;76.60;;;;;;1887247;76;21100;-46
2021/06/28 04:38:35;;;;;;;11.35;8.10;;;26.40;76.50;;;;;;1887175;76;21058;-46
2021/06/28 04:41:05;;;;;;;12.73;8.55;;;26.40;76.40;;;;;;1887270;76;21100;-46
2021/06/28 04:43:35;;;;;;;11.97;8.23;;;26.40;76.30;;;;;;1887077;76;21092;-46
2021/06/28 04:46:04;;;;;;;20.88;8.00;;;26.40;76.10;;;;;;1887200;76;21095;-46
2021/06/28 04:48:34;;;;;;;17.40;8.20;;;26.50;76.10;;;;;;1887093;75;21046;-46
2021/06/28 04:51:03;;;;;;;17.50;8.05;;;26.50;76.10;;;;;;1887076;76;21057;-47
2021/06/28 04:53:33;;;;;;;18.70;7.55;;;26.50;76.10;;;;;;1887067;75;21034;-49
2021/06/28 04:56:04;;;;;;;11.57;7.33;;;26.50;76.10;;;;;;1887091;75;21091;-46
2021/06/28 04:58:34;;;;;;;15.65;7.90;;;26.50;75.90;;;;;;1887057;76;21144;-45
2021/06/28 05:01:03;;;;;;;13.83;7.80;;;26.60;76.00;;;;;;1887025;76;21029;-46
2021/06/28 05:03:33;;;;;;;11.93;7.95;;;26.60;76.00;;;;;;1886650;76;21103;-46
2021/06/28 05:06:02;;;;;;;15.53;7.95;;;26.70;75.90;;;;;;1865798;77;21104;-47
2021/06/28 05:08:31;;;;;;;10.65;8.40;;;26.70;75.90;;;;;;1865767;77;21026;-46
2021/06/28 05:11:01;;;;;;;11.40;7.60;;;26.80;75.60;;;;;;1865622;76;21035;-47
2021/06/28 05:13:30;;;;;;;14.83;8.08;;;26.90;75.60;;;;;;1865790;77;21038;-47
2021/06/28 05:16:00;;;;;;;14.65;7.67;;;27.00;75.40;;;;;;1865881;76;21034;-48
2021/06/28 05:18:29;;;;;;;18.25;8.28;;;27.00;75.20;;;;;;1865687;76;21023;-46
2021/06/28 05:20:58;;;;;;;12.63;6.97;;;27.10;75.00;;;;;;1865555;77;21126;-45
2021/06/28 05:23:28;;;;;;;17.75;7.87;;;27.20;74.60;;;;;;1865557;76;21165;-46
2021/06/28 05:25:57;;;;;;;13.85;8.28;;;27.30;74.40;;;;;;1865777;77;21104;-47
2021/06/28 05:28:26;;;;;;;12.78;6.35;;;27.30;74.10;;;;;;1865766;77;21038;-45
2021/06/28 05:30:57;;;;;;;16.50;7.85;;;27.40;73.70;;;;;;1865732;77;21453;-45
2021/06/28 05:33:26;;;;;;;14.33;7.55;;;27.50;73.80;;;;;;1865526;76;21035;-46
2021/06/28 05:35:56;;;;;;;14.55;7.62;;;27.60;73.50;;;;;;1865715;77;21043;-46
2021/06/28 05:38:25;;;;;;;9.33;6.72;;;27.60;73.20;;;;;;1865611;77;21035;-46
2021/06/28 05:40:55;;;;;;;11.22;7.58;;;27.70;72.70;;;;;;1865673;75;21074;-45
2021/06/28 05:43:24;;;;;;;11.55;8.65;;;27.70;72.50;;;;;;1865674;76;21102;-47
2021/06/28 05:45:53;;;;;;;12.45;8.35;;;27.60;72.30;;;;;;1865684;77;21038;-46
2021/06/28 05:48:23;;;;;;;14.73;8.68;;;27.60;72.50;;;;;;1865593;76;21035;-47
2021/06/28 05:50:52;;;;;;;15.20;9.15;;;27.50;73.00;;;;;;1865810;77;21109;-47
2021/06/28 05:53:22;;;;;;;17.17;8.50;;;27.50;72.50;;;;;;1865591;77;21034;-46
2021/06/28 05:55:51;;;;;;;13.43;8.05;;;27.50;72.70;;;;;;1865825;77;21477;-45
2021/06/28 05:58:24;;;;;;;17.32;7.33;;;27.40;72.80;;;;;;1865736;77;21031;-47
2021/06/28 06:00:51;;;;;;;17.40;9.38;;;27.50;73.00;;;;;;1865841;76;21043;-50
2021/06/28 06:03:21;;;;;;;20.62;8.18;;;27.60;72.90;;;;;;1865800;77;21007;-45
2021/06/28 06:05:52;;;;;;;11.65;8.75;;;27.60;72.60;;;;;;1865851;75;21067;-45
2021/06/28 06:08:26;;;;;;;10.95;8.60;;;27.70;72.60;;;;;;1865933;77;21062;-46
2021/06/28 06:10:58;;;;;;;17.82;8.18;;;27.80;72.60;;;;;;1864771;77;21059;-46
2021/06/28 06:13:27;;;;;;;8.43;6.97;;;27.90;72.40;;;;;;1865090;77;21464;-46
2021/06/28 06:15:58;;;;;;;9.68;7.30;;;28.10;71.80;;;;;;1865965;77;21080;-46
2021/06/28 06:18:28;;;;;;;11.20;7.33;;;28.20;71.30;;;;;;1865961;77;21054;-50
2021/06/28 06:20:57;;;;;;;13.90;7.72;;;28.30;71.00;;;;;;1865789;76;21050;-47
2021/06/28 06:23:27;;;;;;;14.07;7.50;;;28.40;70.80;;;;;;1865757;77;21003;-47
2021/06/28 06:25:56;;;;;;;16.45;7.85;;;28.50;70.30;;;;;;1865861;77;21505;-47
2021/06/28 06:28:25;;;;;;;13.72;9.10;;;28.60;69.80;;;;;;1865832;77;21067;-47
2021/06/28 06:30:55;;;;;;;13.53;8.08;;;28.70;69.70;;;;;;1865777;77;21085;-47
2021/06/28 06:33:24;;;;;;;13.88;8.18;;;28.80;69.20;;;;;;1865747;76;21073;-48
2021/06/28 06:35:53;;;;;;;13.03;7.62;;;28.80;69.10;;;;;;1865936;76;21011;-45
2021/06/28 06:38:23;;;;;;;9.50;7.22;;;28.80;69.20;;;;;;1865751;76;21059;-47
2021/06/28 06:40:52;;;;;;;12.13;7.20;;;28.80;69.20;;;;;;1865802;77;21010;-50
2021/06/28 06:43:22;;;;;;;11.90;7.62;;;29.00;69.30;;;;;;1864584;77;21035;-45
2021/06/28 06:45:52;;;;;;;12.25;7.47;;;29.10;68.80;;;;;;1865420;77;21108;-47
2021/06/28 06:48:21;;;;;;;14.55;7.10;;;29.20;68.40;;;;;;1865806;77;21112;-46
2021/06/28 06:50:51;;;;;;;13.32;8.13;;;29.30;67.80;;;;;;1865263;77;21051;-47
2021/06/28 06:53:21;;;;;;;9.13;6.35;;;29.40;67.30;;;;;;1865554;77;21030;-45
2021/06/28 06:55:51;;;;;;;16.10;8.03;;;29.40;66.90;;;;;;1865807;77;21060;-49
2021/06/28 06:58:20;;;;;;;13.80;7.40;;;29.50;66.40;;;;;;1865550;77;21509;-49
2021/06/28 07:00:50;;;;;;;14.47;7.60;;;29.50;66.50;;;;;;1865799;77;21035;-50
2021/06/28 07:03:19;;;;;;;15.68;8.15;;;29.60;66.30;;;;;;1865788;77;21046;-47
2021/06/28 07:05:48;;;;;;;9.38;6.78;;;29.70;65.70;;;;;;1875029;75;21066;-49
2021/06/28 07:08:18;;;;;;;16.48;6.78;;;29.80;65.40;;;;;;1887063;76;21018;-53
2021/06/28 07:10:47;;;;;;;12.07;7.22;;;29.80;66.00;;;;;;1887142;75;21038;-53
2021/06/28 07:13:16;;;;;;;7.67;6.67;;;29.80;65.20;;;;;;1886984;76;21111;-53
2021/06/28 07:15:46;;;;;;;12.68;7.28;;;29.90;65.10;;;;;;1887031;76;21057;-51
2021/06/28 07:18:15;;;;;;;13.58;6.95;;;29.90;65.20;;;;;;1886851;76;21006;-48
2021/06/28 07:20:45;;;;;;;14.93;7.37;;;30.00;64.90;;;;;;1886958;75;21065;-52
2021/06/28 07:23:14;;;;;;;13.43;8.03;;;30.10;64.90;;;;;;1886968;76;21033;-46
2021/06/28 07:25:44;;;;;;;12.73;6.90;;;30.20;64.80;;;;;;1886915;76;21026;-46
2021/06/28 07:28:13;;;;;;;13.03;7.22;;;30.30;64.40;;;;;;1886979;76;21037;-45
2021/06/28 07:30:43;;;;;;;11.08;6.53;;;30.30;64.30;;;;;;1887076;75;21038;-46
2021/06/28 07:33:12;;;;;;;10.98;7.47;;;30.30;64.00;;;;;;1886884;76;21034;-48
2021/06/28 07:35:42;;;;;;;12.18;7.08;;;30.40;64.20;;;;;;1887069;75;21034;-47
2021/06/28 07:38:12;;;;;;;12.00;7.95;;;30.40;64.10;;;;;;1887039;76;21046;-47
2021/06/28 07:40:41;;;;;;;14.75;8.73;;;30.40;64.20;;;;;;1886815;76;21109;-48
2021/06/28 07:43:10;;;;;;;9.38;6.37;;;30.50;63.80;;;;;;1886619;75;21042;-46
2021/06/28 07:45:40;;;;;;;16.10;10.95;;;30.40;63.20;;;;;;1886941;76;21092;-48
2021/06/28 07:48:10;;;;;;;16.70;7.42;;;30.40;63.20;;;;;;1886976;76;21104;-49
2021/06/28 07:50:39;;;;;;;10.88;6.45;;;30.50;62.40;;;;;;1886877;76;21037;-47
2021/06/28 07:53:08;;;;;;;17.57;7.15;;;30.60;62.00;;;;;;1887002;76;21526;-48
2021/06/28 07:55:37;;;;;;;7.78;6.10;;;30.70;61.80;;;;;;1886801;76;21187;-46
2021/06/28 07:58:07;;;;;;;13.65;7.55;;;30.70;61.70;;;;;;1886621;76;21163;-47
2021/06/28 08:00:36;;;;;;;10.75;7.33;;;30.80;62.30;;;;;;1886757;76;21061;-50
2021/06/28 08:03:07;;;;;;;16.42;7.17;;;30.90;62.40;;;;;;1886878;76;21115;-48
2021/06/28 08:05:38;;;;;;;9.38;6.50;;;30.90;61.90;;;;;;1886966;75;21215;-45
2021/06/28 08:08:07;;;;;;;10.93;6.05;;;30.90;61.50;;;;;;1886861;76;21045;-49
2021/06/28 08:10:37;;;;;;;10.98;6.25;;;30.90;61.60;;;;;;1886984;76;21030;-47
2021/06/28 08:13:06;;;;;;;9.48;6.58;;;30.80;61.00;;;;;;1886914;76;21034;-48
2021/06/28 08:15:36;;;;;;;14.28;7.47;;;30.90;61.40;;;;;;1886788;75;21069;-45
2021/06/28 08:18:05;;;;;;;11.28;7.30;;;31.00;61.10;;;;;;1886837;76;21085;-45
2021/06/28 08:20:37;;;;;;;9.15;6.37;;;31.00;61.10;;;;;;1886903;75;21084;-44
2021/06/28 08:23:06;;;;;;;11.90;6.87;;;30.90;61.20;;;;;;1886640;76;21084;-46
2021/06/28 08:25:35;;;;;;;17.07;7.22;;;30.80;61.50;;;;;;1886886;76;21140;-48
2021/06/28 08:28:07;;;;;;;14.25;7.37;;;30.70;61.60;;;;;;1886888;76;21131;-44
2021/06/28 08:30:36;;;;;;;14.03;7.50;;;30.70;61.90;;;;;;1886837;76;21041;-46
2021/06/28 08:33:06;;;;;;;13.80;7.95;;;30.80;61.80;;;;;;1886728;75;21105;-45
2021/06/28 08:35:35;;;;;;;34.05;9.33;;;30.80;62.10;;;;;;1886940;76;21109;-48
2021/06/28 08:38:05;;;;;;;13.60;7.50;;;30.90;61.90;;;;;;1886828;76;21038;-48
2021/06/28 08:40:34;;;;;;;14.23;7.80;;;31.00;61.80;;;;;;1886815;76;21034;-49
2021/06/28 08:43:05;;;;;;;9.68;6.97;;;31.00;61.60;;;;;;1886835;75;21038;-44
2021/06/28 08:45:39;;;;;;;11.55;7.72;;;31.10;61.20;;;;;;1886865;75;21042;-46
2021/06/28 08:48:09;;;;;;;9.08;6.80;;;31.10;61.40;;;;;;1886010;76;21054;-47
2021/06/28 08:50:41;;;;;;;10.43;7.17;;;31.10;61.00;;;;;;1888965;76;21010;-44
2021/06/28 08:53:14;;;;;;;11.38;6.80;;;31.20;60.50;;;;;;1891793;76;21013;-47
2021/06/28 08:55:43;;;;;;;9.25;7.03;;;31.30;60.80;;;;;;1891852;76;21534;-48
2021/06/28 08:58:12;;;;;;;15.18;7.30;;;31.30;60.50;;;;;;1892044;76;21029;-50
2021/06/28 09:00:42;;;;;;;11.38;6.80;;;31.40;60.00;;;;;;1891594;76;21080;-50
2021/06/28 09:03:13;;;;;;;9.58;6.95;;;31.50;59.80;;;;;;1891345;76;21033;-50
2021/06/28 09:05:53;;;;;;;10.55;7.00;;;31.40;59.40;;;;;;1891928;76;21005;-48
2021/06/28 09:08:22;;;;;;;13.03;7.22;;;31.50;59.60;;;;;;1889569;76;21045;-50
2021/06/28 09:10:52;;;;;;;17.55;9.88;;;31.50;59.00;;;;;;1891656;76;21150;-46
2021/06/28 09:13:28;;;;;;;10.00;7.33;;;31.50;59.50;;;;;;1891802;76;21028;-49
2021/06/28 09:15:57;;;;;;;16.15;8.13;;;31.50;60.10;;;;;;1849529;77;21043;-49
2021/06/28 09:18:28;;;;;;;9.63;7.30;;;31.60;60.20;;;;;;1824540;78;21129;-50
2021/06/28 09:21:09;;;;;;;15.60;6.90;;;31.60;59.60;;;;;;1897603;75;21060;-50
2021/06/28 09:23:42;;;;;;;9.85;7.70;;;31.70;58.90;;;;;;1855973;77;21050;-46
2021/06/28 09:26:18;;;;;;;13.78;7.37;;;31.80;57.90;;;;;;1898396;75;21020;-46
2021/06/28 09:28:49;;;;;;;15.25;8.00;;;31.90;58.30;;;;;;1856485;77;21136;-47
2021/06/28 09:31:38;;;;;;;21.23;11.40;;;32.00;58.50;;;;;;1898065;75;21064;-46
2021/06/28 09:34:11;;;;;;;9.85;6.92;;;32.00;57.90;;;;;;1856350;77;21042;-46
2021/06/28 09:36:51;;;;;;;11.75;7.72;;;32.10;57.90;;;;;;1898229;75;21521;-50
2021/06/28 09:39:32;;;;;;;10.95;6.42;;;32.20;57.80;;;;;;1856304;77;21066;-50
2021/06/28 09:42:10;;;;;;;10.75;6.50;;;32.30;57.40;;;;;;1898439;75;21037;-47
2021/06/28 09:44:42;;;;;;;9.18;6.45;;;32.30;56.10;;;;;;1850271;77;21066;-50
2021/06/28 09:47:15;;;;;;;9.85;6.60;;;32.30;55.60;;;;;;1898223;75;21009;-50
2021/06/28 09:50:04;;;;;;;10.53;6.60;;;32.30;55.20;;;;;;1856642;77;21062;-51
2021/06/28 09:52:46;;;;;;;9.08;6.10;;;32.20;55.60;;;;;;1898104;75;21091;-49
2021/06/28 09:55:21;;;;;;;13.68;7.75;;;32.30;55.60;;;;;;1856550;77;21187;-49
2021/06/28 09:58:10;;;;;;;9.20;7.25;;;32.40;55.30;;;;;;1898419;75;21444;-48
2021/06/28 10:00:41;;;;;;;13.75;6.67;;;32.30;55.20;;;;;;1856196;77;21078;-48
2021/06/28 10:03:32;;;;;;;10.03;6.65;;;32.30;55.90;;;;;;1895510;75;21036;-50
2021/06/28 10:06:27;;;;;;;10.75;7.35;;;32.20;55.50;;;;;;1898350;75;21028;-50
2021/06/28 10:08:51;;;;;;;10.78;7.35;;;32.30;55.60;;;;;;1852017;77;21175;-50
2021/06/28 10:11:24;;;;;;;11.88;8.10;;;32.30;55.80;;;;;;1853344;77;21038;-50
2021/06/28 10:14:04;;;;;;;16.27;7.80;;;32.40;56.20;;;;;;1853420;76;21107;-50
2021/06/28 10:16:36;;;;;;;11.40;7.65;;;32.30;55.70;;;;;;1853218;77;21042;-48
2021/06/28 10:19:08;;;;;;;13.32;8.10;;;32.30;55.70;;;;;;1852364;76;21163;-49
2021/06/28 10:21:38;;;;;;;11.97;8.03;;;32.30;56.00;;;;;;1851913;77;21097;-50
2021/06/28 10:24:08;;;;;;;14.20;7.15;;;32.40;56.40;;;;;;1853074;77;21042;-51
2021/06/28 10:26:38;;;;;;;11.85;7.35;;;32.40;55.60;;;;;;1852682;77;21179;-49
2021/06/28 10:29:07;;;;;;;10.93;6.60;;;32.50;55.60;;;;;;1853267;77;21042;-47
2021/06/28 10:31:37;;;;;;;14.05;7.03;;;32.50;55.60;;;;;;1852562;77;21147;-49
2021/06/28 10:34:07;;;;;;;12.10;7.47;;;32.40;55.40;;;;;;1853515;76;21433;-47
2021/06/28 10:36:39;;;;;;;12.23;6.97;;;32.50;55.30;;;;;;1853541;77;21164;-51
2021/06/28 10:39:10;;;;;;;17.23;7.45;;;32.50;55.20;;;;;;1853569;77;21042;-48
2021/06/28 10:41:42;;;;;;;13.55;7.97;;;32.40;54.90;;;;;;1853413;77;21045;-48
2021/06/28 10:44:19;;;;;;;13.32;10.05;;;32.40;54.70;;;;;;1853592;77;21042;-51
2021/06/28 10:46:51;;;;;;;9.03;6.55;;;32.40;54.70;;;;;;1853471;77;21022;-48
2021/06/28 10:49:46;;;;;;;10.55;7.40;;;32.40;54.90;;;;;;1853512;77;21062;-48
2021/06/28 10:52:30;;;;;;;11.55;6.92;;;32.50;54.90;;;;;;1853547;76;21042;-47
2021/06/28 10:54:59;;;;;;;11.30;7.60;;;32.50;54.90;;;;;;1824796;77;21014;-48
2021/06/28 10:57:39;;;;;;;15.98;6.45;;;32.50;54.50;;;;;;1853524;76;21117;-49
2021/06/28 11:00:10;;;;;;;11.25;7.47;;;32.50;54.00;;;;;;1849969;77;21042;-48
2021/06/28 11:02:40;;;;;;;9.73;6.72;;;32.40;54.30;;;;;;1853497;77;21046;-48
2021/06/28 11:05:11;;;;;;;14.93;7.15;;;32.50;54.40;;;;;;1853451;77;21058;-50
2021/06/28 11:07:47;;;;;;;23.15;6.65;;;32.50;54.40;;;;;;1856918;75;21045;-47
2021/06/28 11:10:38;;;;;;;9.60;6.58;;;32.50;53.30;;;;;;1828106;78;21203;-50
2021/06/28 11:13:38;;;;;;;10.70;6.95;;;32.50;53.40;;;;;;1862689;77;21057;-49
2021/06/28 11:16:31;;;;;;;9.83;6.65;;;32.50;53.70;;;;;;1861696;76;21010;-47
2021/06/28 11:19:00;;;;;;;9.95;7.10;;;32.60;53.90;;;;;;1862767;77;21127;-48
2021/06/28 11:21:43;;;;;;;10.00;6.67;;;32.60;54.10;;;;;;1862812;77;21030;-48
2021/06/28 11:24:14;;;;;;;19.17;8.48;;;32.70;54.00;;;;;;1862849;77;21104;-49
2021/06/28 11:26:43;;;;;;;14.73;7.45;;;32.70;54.00;;;;;;1859152;75;21463;-48
2021/06/28 11:29:15;;;;;;;11.93;7.22;;;32.70;54.20;;;;;;1862738;76;21045;-50
2021/06/28 11:31:44;;;;;;;13.15;7.33;;;32.80;54.20;;;;;;1855001;76;21546;-51
2021/06/28 11:34:16;;;;;;;11.03;6.50;;;32.70;54.30;;;;;;1862742;77;21069;-48
2021/06/28 11:36:46;;;;;;;9.65;6.92;;;32.70;54.50;;;;;;1855117;77;21053;-48
2021/06/28 11:39:27;;;;;;;11.33;7.67;;;32.80;54.40;;;;;;1862859;77;21074;-48
2021/06/28 11:42:26;;;;;;;11.73;6.90;;;32.90;54.20;;;;;;1862925;77;21109;-48
2021/06/28 11:44:58;;;;;;;12.45;7.33;;;33.00;54.20;;;;;;1862796;76;21123;-48
2021/06/28 11:47:50;;;;;;;10.75;7.50;;;33.00;54.00;;;;;;1862985;77;21109;-47
2021/06/28 11:50:34;;;;;;;13.90;8.33;;;33.10;53.90;;;;;;1862802;77;21557;-51
2021/06/28 11:53:08;;;;;;;13.70;7.33;;;33.10;54.30;;;;;;1862789;77;21439;-50
2021/06/28 11:55:40;;;;;;;10.35;7.40;;;33.10;53.80;;;;;;1862722;77;21115;-49
2021/06/28 11:58:10;;;;;;;9.63;7.10;;;33.10;54.30;;;;;;1862889;77;21108;-47
2021/06/28 12:00:39;;;;;;;10.60;7.62;;;33.10;54.40;;;;;;1862687;77;21017;-50
2021/06/28 12:03:24;;;;;;;14.43;8.25;;;33.10;54.40;;;;;;1862946;77;21041;-49
2021/06/28 12:05:50;;;;;;;10.00;6.55;;;33.10;54.30;;;;;;1862003;77;21444;-49
2021/06/28 12:08:26;;;;;;;11.43;7.65;;;33.10;54.20;;;;;;1862795;76;21041;-48
2021/06/28 12:10:58;;;;;;;11.53;6.85;;;33.10;54.30;;;;;;1862872;77;21124;-51
2021/06/28 12:13:31;;;;;;;13.05;6.70;;;33.10;54.20;;;;;;1862793;76;21065;-50
2021/06/28 12:16:18;;;;;;;17.37;7.50;;;33.10;54.10;;;;;;1862840;77;21033;-50
2021/06/28 12:18:48;;;;;;;13.25;7.05;;;33.10;54.20;;;;;;1862751;77;21049;-49
2021/06/28 12:21:28;;;;;;;13.43;7.55;;;33.00;54.30;;;;;;1862804;77;21047;-50
2021/06/28 12:24:02;;;;;;;14.43;7.20;;;33.00;54.30;;;;;;1862830;77;21061;-48
2021/06/28 12:26:30;;;;;;;;;;;33.00;54.20;;;;;;1865254;77;21186;-48
2021/06/28 12:29:01;;;;;;;10.38;7.22;;;32.90;53.80;;;;;;1862860;76;20372;-51
2021/06/28 12:31:32;;;;;;;11.00;7.03;;;32.80;54.00;;;;;;1857894;77;21089;-50
2021/06/28 12:34:01;;;;;;;13.28;8.00;;;32.80;54.60;;;;;;1862830;76;21040;-48
2021/06/28 12:36:30;;;;;;;7.50;6.60;;;32.80;54.70;;;;;;1862778;77;21108;-48
2021/06/28 12:39:00;;;;;;;12.05;8.15;;;32.90;54.50;;;;;;1862894;77;21116;-48
2021/06/28 12:41:30;;;;;;;13.60;7.90;;;32.90;54.90;;;;;;1862904;77;21065;-49
2021/06/28 12:43:59;;;;;;;18.60;8.58;;;32.90;54.90;;;;;;1862914;76;21018;-51
2021/06/28 12:46:30;;;;;;;16.93;7.65;;;32.90;54.80;;;;;;1862883;77;21042;-49
2021/06/28 12:48:59;;;;;;;12.70;7.00;;;32.90;55.00;;;;;;1862982;77;21022;-48
2021/06/28 12:51:29;;;;;;;11.43;7.65;;;32.80;55.00;;;;;;1862687;77;21100;-51
2021/06/28 12:53:58;;;;;;;11.53;6.60;;;32.90;55.40;;;;;;1862685;77;21077;-50
2021/06/28 12:56:30;;;;;;;12.47;7.15;;;32.80;54.70;;;;;;1862799;77;21184;-47
2021/06/28 12:59:02;;;;;;;12.00;7.15;;;32.80;55.10;;;;;;1862911;77;21034;-48